createdAt,value
2024-05-09T00:01:23.134Z,27.68
2024-05-09T00:02:23.247Z,27.67
2024-05-09T00:03:23.144Z,27.64
2024-05-09T00:04:23.096Z,27.65
2024-05-09T00:05:23.097Z,27.65
2024-05-09T00:06:23.041Z,27.65
2024-05-09T00:07:23.044Z,27.65
2024-05-09T00:08:23.183Z,27.64
2024-05-09T00:09:23.056Z,27.65
2024-05-09T00:10:29.312Z,27.64
2024-05-09T00:11:24.299Z,27.62
2024-05-09T00:12:23.188Z,27.64
2024-05-09T00:13:23.086Z,27.64
2024-05-09T00:14:23.178Z,27.65
2024-05-09T00:15:23.116Z,27.65
2024-05-09T00:16:23.117Z,27.62
2024-05-09T00:17:23.335Z,27.68
2024-05-09T00:18:23.351Z,27.64
2024-05-09T00:19:23.271Z,27.67
2024-05-09T00:20:28.436Z,27.62
2024-05-09T00:21:24.114Z,27.64
2024-05-09T00:22:23.099Z,27.62
2024-05-09T00:23:23.210Z,27.65
2024-05-09T00:24:23.083Z,27.61
2024-05-09T00:25:23.098Z,27.62
2024-05-09T00:26:23.205Z,27.62
2024-05-09T00:27:23.108Z,27.65
2024-05-09T00:28:23.100Z,27.62
2024-05-09T00:29:23.264Z,27.62
2024-05-09T00:31:23.112Z,27.62
2024-05-09T00:32:23.249Z,27.62
2024-05-09T00:33:23.329Z,27.64
2024-05-09T00:34:23.215Z,27.65
2024-05-09T00:35:23.435Z,27.64
2024-05-09T00:36:23.157Z,27.64
2024-05-09T00:37:23.170Z,27.64
2024-05-09T00:38:23.234Z,27.61
2024-05-09T00:39:23.124Z,27.61
2024-05-09T00:40:31.109Z,27.62
2024-05-09T00:41:24.161Z,27.61
2024-05-09T00:42:23.178Z,27.62
2024-05-09T00:43:23.161Z,27.60
2024-05-09T00:44:23.249Z,27.62
2024-05-09T00:45:23.167Z,27.60
2024-05-09T00:46:23.138Z,27.62
2024-05-09T00:47:23.245Z,27.62
2024-05-09T00:48:23.240Z,27.61
2024-05-09T00:49:23.262Z,27.61
2024-05-09T00:50:29.930Z,27.60
2024-05-09T00:51:24.257Z,27.58
2024-05-09T00:52:23.158Z,27.61
2024-05-09T00:53:23.158Z,27.62
2024-05-09T00:54:23.145Z,27.58
2024-05-09T00:55:23.158Z,27.61
2024-05-09T00:56:23.198Z,27.61
2024-05-09T00:57:23.188Z,27.62
2024-05-09T00:58:23.176Z,27.61
2024-05-09T00:59:23.266Z,27.62
2024-05-09T01:00:31.152Z,27.60
2024-05-09T01:01:24.198Z,27.62
2024-05-09T01:02:23.283Z,27.61
2024-05-09T01:03:23.325Z,27.61
2024-05-09T01:04:23.274Z,27.60
2024-05-09T01:05:23.242Z,27.60
2024-05-09T01:06:23.182Z,27.62
2024-05-09T01:07:23.181Z,27.58
2024-05-09T01:08:23.227Z,27.60
2024-05-09T01:09:23.185Z,27.60
2024-05-09T01:10:28.207Z,27.60
2024-05-09T01:11:24.300Z,27.60
2024-05-09T01:12:23.320Z,27.58
2024-05-09T01:13:23.217Z,27.60
2024-05-09T01:14:23.301Z,27.57
2024-05-09T01:15:23.204Z,27.58
2024-05-09T01:16:23.197Z,27.58
2024-05-09T01:17:23.313Z,27.57
2024-05-09T01:18:23.325Z,27.58
2024-05-09T01:19:23.333Z,27.57
2024-05-09T01:20:32.012Z,27.58
2024-05-09T01:21:24.254Z,27.58
2024-05-09T01:22:23.223Z,27.58
2024-05-09T01:23:23.307Z,27.56
2024-05-09T01:24:23.245Z,27.57
2024-05-09T01:25:23.255Z,27.58
2024-05-09T01:26:23.279Z,27.58
2024-05-09T01:27:23.246Z,27.58
2024-05-09T01:28:23.249Z,27.57
2024-05-09T01:29:23.369Z,27.58
2024-05-09T01:30:31.295Z,27.56
2024-05-09T01:31:24.248Z,27.58
2024-05-09T01:32:23.413Z,27.58
2024-05-09T01:33:23.443Z,27.57
2024-05-09T01:34:23.368Z,27.57
2024-05-09T01:35:23.364Z,27.60
2024-05-09T01:36:23.259Z,27.57
2024-05-09T01:37:23.264Z,27.57
2024-05-09T01:38:23.261Z,27.56
2024-05-09T01:39:23.286Z,27.56
2024-05-09T01:41:23.319Z,27.56
2024-05-09T01:42:23.271Z,27.58
2024-05-09T01:43:23.275Z,27.57
2024-05-09T01:44:23.343Z,27.57
2024-05-09T01:45:23.262Z,27.56
2024-05-09T01:46:23.280Z,27.56
2024-05-09T01:47:23.489Z,27.58
2024-05-09T01:48:23.416Z,27.54
2024-05-09T01:49:23.540Z,27.56
2024-05-09T01:50:35.683Z,27.57
2024-05-09T01:51:24.316Z,27.56
2024-05-09T01:52:23.342Z,27.56
2024-05-09T01:53:23.343Z,27.57
2024-05-09T01:54:23.320Z,27.58
2024-05-09T01:55:23.316Z,27.56
2024-05-09T01:56:23.338Z,27.57
2024-05-09T01:57:23.316Z,27.56
2024-05-09T01:58:23.297Z,27.56
2024-05-09T01:59:23.384Z,27.56
2024-05-09T02:00:33.731Z,27.54
2024-05-09T02:01:24.346Z,27.56
2024-05-09T02:02:23.527Z,27.56
2024-05-09T02:03:23.663Z,27.57
2024-05-09T02:04:23.772Z,27.53
2024-05-09T02:05:23.555Z,27.54
2024-05-09T02:06:23.338Z,27.53
2024-05-09T02:07:23.347Z,27.53
2024-05-09T02:08:23.369Z,27.56
2024-05-09T02:09:23.336Z,27.54
2024-05-09T02:10:30.180Z,27.54
2024-05-09T02:11:24.448Z,27.56
2024-05-09T02:12:23.412Z,27.56
2024-05-09T02:13:23.351Z,27.53
2024-05-09T02:14:23.462Z,27.53
2024-05-09T02:15:23.380Z,27.54
2024-05-09T02:16:23.351Z,27.54
2024-05-09T02:17:23.457Z,27.53
2024-05-09T02:18:23.554Z,27.54
2024-05-09T02:19:23.545Z,27.54
2024-05-09T02:20:30.626Z,27.51
2024-05-09T02:21:24.369Z,27.51
2024-05-09T02:22:23.354Z,27.54
2024-05-09T02:23:23.390Z,27.53
2024-05-09T02:24:23.374Z,27.53
2024-05-09T02:25:23.368Z,27.53
2024-05-09T02:26:23.454Z,27.54
2024-05-09T02:27:23.373Z,27.53
2024-05-09T02:28:23.354Z,27.51
2024-05-09T02:29:23.392Z,27.53
2024-05-09T02:30:30.724Z,27.53
2024-05-09T02:31:24.407Z,27.50
2024-05-09T02:32:23.438Z,27.50
2024-05-09T02:33:23.856Z,27.51
2024-05-09T02:34:23.573Z,27.51
2024-05-09T02:35:23.457Z,27.51
2024-05-09T02:36:23.394Z,27.54
2024-05-09T02:37:23.402Z,27.51
2024-05-09T02:38:23.496Z,27.50
2024-05-09T02:39:23.388Z,27.50
2024-05-09T02:41:23.447Z,27.51
2024-05-09T02:42:23.402Z,27.51
2024-05-09T02:43:23.401Z,27.50
2024-05-09T02:44:23.517Z,27.50
2024-05-09T02:45:23.413Z,27.50
2024-05-09T02:46:23.401Z,27.50
2024-05-09T02:47:23.541Z,27.51
2024-05-09T02:48:23.525Z,27.49
2024-05-09T02:49:23.500Z,27.50
2024-05-09T02:50:30.570Z,27.50
2024-05-09T02:51:24.481Z,27.51
2024-05-09T02:52:23.484Z,27.51
2024-05-09T02:53:23.533Z,27.51
2024-05-09T02:54:23.481Z,27.50
2024-05-09T02:55:23.472Z,27.53
2024-05-09T02:56:23.522Z,27.49
2024-05-09T02:57:23.485Z,27.51
2024-05-09T02:58:23.496Z,27.50
2024-05-09T02:59:23.654Z,27.51
2024-05-09T03:00:29.807Z,27.50
2024-05-09T03:01:24.556Z,27.50
2024-05-09T03:02:23.586Z,27.50
2024-05-09T03:03:23.962Z,27.50
2024-05-09T03:04:23.544Z,27.51
2024-05-09T03:05:23.517Z,27.51
2024-05-09T03:06:23.500Z,27.47
2024-05-09T03:07:23.496Z,27.50
2024-05-09T03:08:23.534Z,27.49
2024-05-09T03:09:23.509Z,27.49
2024-05-09T03:10:28.488Z,27.50
2024-05-09T03:11:24.591Z,27.50
2024-05-09T03:12:23.650Z,27.49
2024-05-09T03:13:23.496Z,27.51
2024-05-09T03:14:23.524Z,27.50
2024-05-09T03:15:23.526Z,27.50
2024-05-09T03:16:23.523Z,27.49
2024-05-09T03:17:23.829Z,27.50
2024-05-09T03:18:23.629Z,27.49
2024-05-09T03:19:23.607Z,27.50
2024-05-09T03:20:27.578Z,27.47
2024-05-09T03:21:24.547Z,27.49
2024-05-09T03:22:23.547Z,27.50
2024-05-09T03:23:23.654Z,27.49
2024-05-09T03:24:23.575Z,27.50
2024-05-09T03:25:23.539Z,27.49
2024-05-09T03:26:23.607Z,27.47
2024-05-09T03:27:23.539Z,27.50
2024-05-09T03:28:23.555Z,27.49
2024-05-09T03:29:23.561Z,27.47
2024-05-09T03:30:30.960Z,27.46
2024-05-09T03:31:24.619Z,27.47
2024-05-09T03:32:23.675Z,27.47
2024-05-09T03:33:23.948Z,27.46
2024-05-09T03:34:23.594Z,27.44
2024-05-09T03:35:23.673Z,27.42
2024-05-09T03:36:23.553Z,27.40
2024-05-09T03:37:23.561Z,27.39
2024-05-09T03:38:23.638Z,27.34
2024-05-09T03:39:23.570Z,27.30
2024-05-09T03:40:26.488Z,27.29
2024-05-09T03:41:24.674Z,27.28
2024-05-09T03:42:23.580Z,27.22
2024-05-09T03:43:23.577Z,27.19
2024-05-09T03:44:23.609Z,27.16
2024-05-09T03:45:23.574Z,27.13
2024-05-09T03:46:23.591Z,27.10
2024-05-09T03:47:23.780Z,27.05
2024-05-09T03:48:23.762Z,27.02
2024-05-09T03:49:23.671Z,26.98
2024-05-09T03:51:23.609Z,26.91
2024-05-09T03:52:23.640Z,26.89
2024-05-09T03:53:23.725Z,26.85
2024-05-09T03:54:23.667Z,26.84
2024-05-09T03:55:23.687Z,26.82
2024-05-09T03:56:23.747Z,26.81
2024-05-09T03:57:23.773Z,26.80
2024-05-09T03:58:23.733Z,26.78
2024-05-09T03:59:23.794Z,26.75
2024-05-09T04:00:31.180Z,26.73
2024-05-09T04:01:24.844Z,26.74
2024-05-09T04:02:23.877Z,26.68
2024-05-09T04:03:23.971Z,26.67
2024-05-09T04:04:23.920Z,26.70
2024-05-09T04:05:23.788Z,26.70
2024-05-09T04:06:23.775Z,26.63
2024-05-09T04:07:23.787Z,26.63
2024-05-09T04:08:23.816Z,26.58
2024-05-09T04:09:23.760Z,26.60
2024-05-09T04:10:30.154Z,26.61
2024-05-09T04:11:23.853Z,26.58
2024-05-09T04:12:23.811Z,26.58
2024-05-09T04:13:23.759Z,26.55
2024-05-09T04:14:23.809Z,26.54
2024-05-09T04:15:23.764Z,26.54
2024-05-09T04:16:23.790Z,26.51
2024-05-09T04:17:23.855Z,26.48
2024-05-09T04:18:23.866Z,26.47
2024-05-09T04:19:23.983Z,26.47
2024-05-09T04:21:30.980Z,26.39
2024-05-09T04:22:30.979Z,26.37
2024-05-09T04:23:31.100Z,26.36
2024-05-09T04:24:31.053Z,26.36
2024-05-09T04:25:30.974Z,26.35
2024-05-09T04:26:31.095Z,26.33
2024-05-09T04:27:31.057Z,26.35
2024-05-09T04:28:30.994Z,26.32
2024-05-09T04:29:31.073Z,26.30
2024-05-09T04:30:37.535Z,26.32
2024-05-09T04:31:43.118Z,26.23
2024-05-09T04:32:43.248Z,26.26
2024-05-09T04:33:43.271Z,26.22
2024-05-09T04:34:43.107Z,26.25
2024-05-09T04:35:43.765Z,26.23
2024-05-09T04:36:44.676Z,26.20
2024-05-09T04:37:43.122Z,26.18
2024-05-09T04:38:43.137Z,26.18
2024-05-09T04:39:43.120Z,26.15
2024-05-09T04:40:43.120Z,26.18
2024-05-09T04:41:43.105Z,26.18
2024-05-09T04:42:43.116Z,26.15
2024-05-09T04:43:43.110Z,26.13
2024-05-09T04:44:43.103Z,26.13
2024-05-09T04:45:43.115Z,26.12
2024-05-09T04:46:43.101Z,26.12
2024-05-09T04:47:43.325Z,26.11
2024-05-09T04:48:43.261Z,26.09
2024-05-09T04:49:43.123Z,26.09
2024-05-09T04:50:43.221Z,26.11
2024-05-09T04:51:43.231Z,26.11
2024-05-09T04:52:43.263Z,26.08
2024-05-09T04:53:43.495Z,26.09
2024-05-09T04:54:43.386Z,26.08
2024-05-09T04:55:43.447Z,26.08
2024-05-09T04:56:43.558Z,26.09
2024-05-09T04:57:43.608Z,26.06
2024-05-09T04:58:43.670Z,26.06
2024-05-09T04:59:43.733Z,26.06
2024-05-09T05:00:43.895Z,26.05
2024-05-09T05:01:43.940Z,26.03
2024-05-09T05:02:44.037Z,26.05
2024-05-09T05:03:44.190Z,26.03
2024-05-09T05:04:44.119Z,26.03
2024-05-09T05:05:45.313Z,26.08
2024-05-09T05:06:44.158Z,26.05
2024-05-09T05:07:44.296Z,26.03
2024-05-09T05:08:44.396Z,26.02
2024-05-09T05:09:44.393Z,26.03
2024-05-09T05:10:44.497Z,26.02
2024-05-09T05:11:44.599Z,25.99
2024-05-09T05:12:44.599Z,25.99
2024-05-09T05:13:44.722Z,25.99
2024-05-09T05:14:44.691Z,25.99
2024-05-09T05:15:44.788Z,25.98
2024-05-09T05:16:44.891Z,25.98
2024-05-09T05:17:45.137Z,25.95
2024-05-09T05:18:45.057Z,25.96
2024-05-09T05:19:45.202Z,25.96
2024-05-09T05:20:45.205Z,25.94
2024-05-09T05:21:45.160Z,25.94
2024-05-09T05:22:45.252Z,25.95
2024-05-09T05:23:45.323Z,25.89
2024-05-09T05:24:45.306Z,25.94
2024-05-09T05:25:45.406Z,25.91
2024-05-09T05:26:45.460Z,25.92
2024-05-09T05:27:45.511Z,25.91
2024-05-09T05:28:45.547Z,25.89
2024-05-09T05:29:45.642Z,25.88
2024-05-09T05:30:45.632Z,25.89
2024-05-09T05:31:45.727Z,25.89
2024-05-09T05:32:45.947Z,25.88
2024-05-09T05:33:45.872Z,25.88
2024-05-09T05:34:45.813Z,25.89
2024-05-09T05:35:45.794Z,25.87
2024-05-09T05:36:45.784Z,25.88
2024-05-09T05:37:45.812Z,25.88
2024-05-09T05:38:45.894Z,25.89
2024-05-09T05:39:45.807Z,25.88
2024-05-09T05:40:45.822Z,25.85
2024-05-09T05:41:45.793Z,25.88
2024-05-09T05:42:45.801Z,25.84
2024-05-09T05:43:45.863Z,25.85
2024-05-09T05:44:45.800Z,25.87
2024-05-09T05:45:45.826Z,25.85
2024-05-09T05:46:45.903Z,25.84
2024-05-09T05:47:46.250Z,25.83
2024-05-09T05:48:46.088Z,25.84
2024-05-09T05:49:45.999Z,25.84
2024-05-09T05:50:46.224Z,25.85
2024-05-09T05:51:46.048Z,25.81
2024-05-09T05:52:46.100Z,25.83
2024-05-09T05:53:46.180Z,25.83
2024-05-09T05:54:46.143Z,25.80
2024-05-09T05:55:46.184Z,25.77
2024-05-09T05:56:46.232Z,25.77
2024-05-09T05:57:46.219Z,25.77
2024-05-09T05:58:46.261Z,25.77
2024-05-09T05:59:46.306Z,25.77
2024-05-09T06:00:46.328Z,25.74
2024-05-09T06:01:46.383Z,25.77
2024-05-09T06:02:46.563Z,25.77
2024-05-09T06:03:46.550Z,25.75
2024-05-09T06:04:46.468Z,25.75
2024-05-09T06:05:46.607Z,25.77
2024-05-09T06:06:46.483Z,25.75
2024-05-09T06:07:46.605Z,25.75
2024-05-09T06:08:46.696Z,25.75
2024-05-09T06:09:48.301Z,25.77
2024-05-09T06:10:46.756Z,25.77
2024-05-09T06:11:46.679Z,25.77
2024-05-09T06:12:46.622Z,25.75
2024-05-09T06:13:46.670Z,25.75
2024-05-09T06:14:46.633Z,25.78
2024-05-09T06:15:46.626Z,25.78
2024-05-09T06:16:46.681Z,25.78
2024-05-09T06:17:47.034Z,25.77
2024-05-09T06:18:46.794Z,25.75
2024-05-09T06:19:46.765Z,25.77
2024-05-09T06:20:46.690Z,25.78
2024-05-09T06:21:46.614Z,25.77
2024-05-09T06:22:46.693Z,25.77
2024-05-09T06:23:46.704Z,25.75
2024-05-09T06:24:46.605Z,25.77
2024-05-09T06:25:46.649Z,25.77
2024-05-09T06:26:46.648Z,25.75
2024-05-09T06:27:46.618Z,25.77
2024-05-09T06:28:46.728Z,25.80
2024-05-09T06:29:46.629Z,25.75
2024-05-09T06:30:46.630Z,25.75
2024-05-09T06:31:46.688Z,25.77
2024-05-09T06:32:46.792Z,25.75
2024-05-09T06:33:46.791Z,25.77
2024-05-09T06:34:46.879Z,25.73
2024-05-09T06:35:46.823Z,25.73
2024-05-09T06:36:46.628Z,25.73
2024-05-09T06:37:46.703Z,25.74
2024-05-09T06:38:46.663Z,25.74
2024-05-09T06:39:46.647Z,25.74
2024-05-09T06:40:46.764Z,25.74
2024-05-09T06:41:46.658Z,25.71
2024-05-09T06:42:46.680Z,25.73
2024-05-09T06:43:46.744Z,25.74
2024-05-09T06:44:46.631Z,25.74
2024-05-09T06:45:46.642Z,25.74
2024-05-09T06:46:46.796Z,25.77
2024-05-09T06:47:46.815Z,25.75
2024-05-09T06:48:47.017Z,25.78
2024-05-09T06:49:46.743Z,25.78
2024-05-09T06:50:46.801Z,25.75
2024-05-09T06:51:46.676Z,25.78
2024-05-09T06:52:46.704Z,25.83
2024-05-09T06:53:46.758Z,25.84
2024-05-09T06:54:46.757Z,25.87
2024-05-09T06:55:46.851Z,25.88
2024-05-09T06:56:46.809Z,25.85
2024-05-09T06:57:46.827Z,25.87
2024-05-09T06:58:46.815Z,25.84
2024-05-09T06:59:46.839Z,25.88
2024-05-09T07:00:46.870Z,25.89
2024-05-09T07:01:46.793Z,25.89
2024-05-09T07:02:46.944Z,25.92
2024-05-09T07:03:46.904Z,25.92
2024-05-09T07:04:47.066Z,25.94
2024-05-09T07:05:48.160Z,25.95
2024-05-09T07:06:46.923Z,25.92
2024-05-09T07:07:47.029Z,25.95
2024-05-09T07:08:48.591Z,25.94
2024-05-09T07:09:47.114Z,25.94
2024-05-09T07:10:47.268Z,25.95
2024-05-09T07:11:47.371Z,25.96
2024-05-09T07:12:47.326Z,25.95
2024-05-09T07:13:47.426Z,25.96
2024-05-09T07:14:47.514Z,25.99
2024-05-09T07:15:47.440Z,25.98
2024-05-09T07:16:47.678Z,26.01
2024-05-09T07:17:47.835Z,25.99
2024-05-09T07:18:47.739Z,25.99
2024-05-09T07:19:47.591Z,25.99
2024-05-09T07:20:48.067Z,26.02
2024-05-09T07:21:47.519Z,26.03
2024-05-09T07:22:47.565Z,26.03
2024-05-09T07:23:47.650Z,26.05
2024-05-09T07:24:47.541Z,26.06
2024-05-09T07:25:47.764Z,26.11
2024-05-09T07:26:47.692Z,26.11
2024-05-09T07:27:47.680Z,26.09
2024-05-09T07:28:47.776Z,26.15
2024-05-09T07:29:47.819Z,26.15
2024-05-09T07:30:48.030Z,26.18
2024-05-09T07:31:47.914Z,26.20
2024-05-09T07:32:48.380Z,26.19
2024-05-09T07:33:48.186Z,26.20
2024-05-09T07:34:48.190Z,26.22
2024-05-09T07:35:48.278Z,26.18
2024-05-09T07:36:48.251Z,26.20
2024-05-09T07:37:48.344Z,26.23
2024-05-09T07:38:48.384Z,26.26
2024-05-09T07:39:48.419Z,26.25
2024-05-09T07:40:48.566Z,26.30
2024-05-09T07:41:48.541Z,26.28
2024-05-09T07:42:48.599Z,26.32
2024-05-09T07:43:48.672Z,26.28
2024-05-09T07:44:48.712Z,26.26
2024-05-09T07:45:53.438Z,26.26
2024-05-09T07:47:52.098Z,26.29
2024-05-09T07:49:13.643Z,26.29
2024-05-09T07:53:17.530Z,26.29
2024-05-09T07:53:52.021Z,26.30
2024-05-09T07:54:49.957Z,26.32
2024-05-09T07:55:48.928Z,26.33
2024-05-09T07:56:48.937Z,26.32
2024-05-09T07:57:48.813Z,26.33
2024-05-09T07:58:48.792Z,26.36
2024-05-09T07:59:48.787Z,26.35
2024-05-09T08:00:48.898Z,26.35
2024-05-09T08:01:48.942Z,26.32
2024-05-09T08:02:48.930Z,26.36
2024-05-09T08:03:49.047Z,26.36
2024-05-09T08:04:49.023Z,26.36
2024-05-09T08:05:48.840Z,26.37
2024-05-09T08:06:48.836Z,26.36
2024-05-09T08:07:48.847Z,26.37
2024-05-09T08:08:48.945Z,26.37
2024-05-09T08:09:48.981Z,26.42
2024-05-09T08:10:48.996Z,26.42
2024-05-09T08:11:49.078Z,26.43
2024-05-09T08:12:49.106Z,26.42
2024-05-09T08:13:49.107Z,26.44
2024-05-09T08:14:49.173Z,26.46
2024-05-09T08:15:49.248Z,26.44
2024-05-09T08:16:49.250Z,26.42
2024-05-09T08:17:49.302Z,26.43
2024-05-09T08:18:49.373Z,26.43
2024-05-09T08:19:49.321Z,26.43
2024-05-09T08:20:49.304Z,26.44
2024-05-09T08:21:49.321Z,26.46
2024-05-09T08:22:49.342Z,26.50
2024-05-09T08:23:49.396Z,26.50
2024-05-09T08:24:49.437Z,26.50
2024-05-09T08:25:49.408Z,26.48
2024-05-09T08:26:49.438Z,26.50
2024-05-09T08:27:49.508Z,26.47
2024-05-09T08:28:49.496Z,26.48
2024-05-09T08:29:49.609Z,26.50
2024-05-09T08:30:49.738Z,26.50
2024-05-09T08:31:49.634Z,26.50
2024-05-09T08:32:49.725Z,26.53
2024-05-09T08:33:49.896Z,26.54
2024-05-09T08:34:49.682Z,26.54
2024-05-09T08:35:49.706Z,26.55
2024-05-09T08:36:49.753Z,26.57
2024-05-09T08:37:49.781Z,26.57
2024-05-09T08:38:49.763Z,26.57
2024-05-09T08:39:49.881Z,26.60
2024-05-09T08:40:50.003Z,26.58
2024-05-09T08:41:49.846Z,26.58
2024-05-09T08:42:49.945Z,26.61
2024-05-09T08:43:49.891Z,26.58
2024-05-09T08:44:49.868Z,26.60
2024-05-09T08:45:50.008Z,26.60
2024-05-09T08:46:49.869Z,26.60
2024-05-09T08:47:50.084Z,26.61
2024-05-09T08:48:50.265Z,26.63
2024-05-09T08:49:49.954Z,26.61
2024-05-09T08:50:49.935Z,26.67
2024-05-09T08:51:49.919Z,26.64
2024-05-09T08:52:49.910Z,26.64
2024-05-09T08:53:49.936Z,26.64
2024-05-09T08:54:49.939Z,26.64
2024-05-09T08:55:49.902Z,26.63
2024-05-09T08:56:49.943Z,26.65
2024-05-09T08:57:49.888Z,26.67
2024-05-09T08:58:49.898Z,26.64
2024-05-09T08:59:49.899Z,26.65
2024-05-09T09:00:50.166Z,26.64
2024-05-09T09:01:50.014Z,26.67
2024-05-09T09:02:49.973Z,26.64
2024-05-09T09:03:50.116Z,26.65
2024-05-09T09:04:50.206Z,26.68
2024-05-09T09:05:49.942Z,26.68
2024-05-09T09:06:50.174Z,26.68
2024-05-09T09:07:49.972Z,26.70
2024-05-09T09:08:49.927Z,26.68
2024-05-09T09:09:49.945Z,26.74
2024-05-09T09:10:49.965Z,26.71
2024-05-09T09:11:50.031Z,26.71
2024-05-09T09:12:50.023Z,26.74
2024-05-09T09:13:49.959Z,26.75
2024-05-09T09:14:50.006Z,26.77
2024-05-09T09:15:50.136Z,26.80
2024-05-09T09:16:50.023Z,26.78
2024-05-09T09:17:50.186Z,26.81
2024-05-09T09:18:50.211Z,26.82
2024-05-09T09:19:50.121Z,26.81
2024-05-09T09:20:50.092Z,26.82
2024-05-09T09:21:50.149Z,26.82
2024-05-09T09:22:50.096Z,26.84
2024-05-09T09:23:50.103Z,26.88
2024-05-09T09:24:50.142Z,26.92
2024-05-09T09:25:50.170Z,26.95
2024-05-09T09:26:50.132Z,26.98
2024-05-09T09:27:50.196Z,27.01
2024-05-09T09:28:50.183Z,26.99
2024-05-09T09:29:50.257Z,27.01
2024-05-09T09:30:50.292Z,27.03
2024-05-09T09:31:50.309Z,27.05
2024-05-09T09:32:50.415Z,27.08
2024-05-09T09:33:50.524Z,27.13
2024-05-09T09:34:50.495Z,27.13
2024-05-09T09:35:50.540Z,27.10
2024-05-09T09:36:50.687Z,27.12
2024-05-09T09:37:50.648Z,27.12
2024-05-09T09:38:50.714Z,27.17
2024-05-09T09:39:50.808Z,27.19
2024-05-09T09:40:50.956Z,27.21
2024-05-09T09:41:50.882Z,27.23
2024-05-09T09:42:51.000Z,27.25
2024-05-09T09:43:50.971Z,27.29
2024-05-09T09:44:58.210Z,27.32
2024-05-09T09:45:52.981Z,27.30
2024-05-09T09:46:51.059Z,27.34
2024-05-09T09:47:51.155Z,27.34
2024-05-09T09:48:51.180Z,27.36
2024-05-09T09:49:51.084Z,27.39
2024-05-09T09:50:51.115Z,27.40
2024-05-09T09:51:51.073Z,27.42
2024-05-09T09:52:51.044Z,27.43
2024-05-09T09:53:51.051Z,27.44
2024-05-09T09:54:51.116Z,27.46
2024-05-09T09:55:51.034Z,27.49
2024-05-09T09:56:51.043Z,27.51
2024-05-09T09:57:51.090Z,27.51
2024-05-09T09:58:51.057Z,27.51
2024-05-09T09:59:51.061Z,27.53
2024-05-09T10:00:51.171Z,27.54
2024-05-09T10:01:51.133Z,27.54
2024-05-09T10:02:51.110Z,27.57
2024-05-09T10:03:51.296Z,27.60
2024-05-09T10:04:51.208Z,27.60
2024-05-09T10:05:51.083Z,27.60
2024-05-09T10:06:51.118Z,27.60
2024-05-09T10:07:51.057Z,27.62
2024-05-09T10:08:51.121Z,27.61
2024-05-09T10:09:51.126Z,27.62
2024-05-09T10:10:51.190Z,27.64
2024-05-09T10:12:51.114Z,27.67
2024-05-09T10:13:51.100Z,27.65
2024-05-09T10:14:51.099Z,27.65
2024-05-09T10:15:51.273Z,27.65
2024-05-09T10:16:51.078Z,27.65
2024-05-09T10:17:51.164Z,27.68
2024-05-09T10:18:51.319Z,27.68
2024-05-09T10:19:51.198Z,27.69
2024-05-09T10:20:51.091Z,27.68
2024-05-09T10:21:51.182Z,27.71
2024-05-09T10:22:51.102Z,27.74
2024-05-09T10:23:51.111Z,27.72
2024-05-09T10:24:51.203Z,27.77
2024-05-09T10:25:51.135Z,27.77
2024-05-09T10:26:51.134Z,27.75
2024-05-09T10:27:51.146Z,27.77
2024-05-09T10:28:51.093Z,27.80
2024-05-09T10:29:51.130Z,27.80
2024-05-09T10:30:51.139Z,27.80
2024-05-09T10:31:51.187Z,27.83
2024-05-09T10:32:51.276Z,27.85
2024-05-09T10:33:52.418Z,27.84
2024-05-09T10:34:51.185Z,27.84
2024-05-09T10:35:51.127Z,27.84
2024-05-09T10:36:51.203Z,27.88
2024-05-09T10:37:51.153Z,27.91
2024-05-09T10:38:51.136Z,27.96
2024-05-09T10:39:51.132Z,27.98
2024-05-09T10:40:51.185Z,28.02
2024-05-09T10:41:51.128Z,28.06
2024-05-09T10:42:51.159Z,28.09
2024-05-09T10:43:51.211Z,28.12
2024-05-09T10:44:51.139Z,28.12
2024-05-09T10:45:51.134Z,28.12
2024-05-09T10:46:51.153Z,28.12
2024-05-09T10:47:51.258Z,28.11
2024-05-09T10:48:51.307Z,28.06
2024-05-09T10:49:51.333Z,28.12
2024-05-09T10:50:51.296Z,28.12
2024-05-09T10:51:51.372Z,28.13
2024-05-09T10:52:51.408Z,28.12
2024-05-09T10:53:51.448Z,28.13
2024-05-09T10:54:51.493Z,28.19
2024-05-09T10:55:51.553Z,28.15
2024-05-09T10:56:51.647Z,28.16
2024-05-09T10:57:51.709Z,28.18
2024-05-09T10:58:51.788Z,28.18
2024-05-09T10:59:51.799Z,28.16
2024-05-09T11:00:52.018Z,28.18
2024-05-09T11:01:51.973Z,28.18
2024-05-09T11:02:52.054Z,28.19
2024-05-09T11:03:52.328Z,28.19
2024-05-09T11:04:52.338Z,28.23
2024-05-09T11:05:52.281Z,28.22
2024-05-09T11:06:52.337Z,28.24
2024-05-09T11:07:52.261Z,28.22
2024-05-09T11:08:52.322Z,28.26
2024-05-09T11:09:52.313Z,28.26
2024-05-09T11:10:52.408Z,28.33
2024-05-09T11:11:52.334Z,28.33
2024-05-09T11:12:52.356Z,28.33
2024-05-09T11:13:52.253Z,28.35
2024-05-09T11:14:52.282Z,28.36
2024-05-09T11:15:52.342Z,28.37
2024-05-09T11:16:52.310Z,28.39
2024-05-09T11:17:52.451Z,28.39
2024-05-09T11:18:52.673Z,28.40
2024-05-09T11:19:52.475Z,28.44
2024-05-09T11:20:52.430Z,28.46
2024-05-09T11:21:52.549Z,28.44
2024-05-09T11:22:52.436Z,28.47
2024-05-09T11:23:52.485Z,28.44
2024-05-09T11:24:52.582Z,28.47
2024-05-09T11:25:52.436Z,28.48
2024-05-09T11:26:52.445Z,28.48
2024-05-09T11:27:52.471Z,28.47
2024-05-09T11:28:52.459Z,28.50
2024-05-09T11:29:52.475Z,28.51
2024-05-09T11:30:52.504Z,28.51
2024-05-09T11:31:52.510Z,28.53
2024-05-09T11:32:52.618Z,28.56
2024-05-09T11:33:52.611Z,28.57
2024-05-09T11:34:52.486Z,28.58
2024-05-09T11:35:52.501Z,28.58
2024-05-09T11:36:52.519Z,28.61
2024-05-09T11:37:52.518Z,28.63
2024-05-09T11:38:52.520Z,28.63
2024-05-09T11:39:52.601Z,28.63
2024-05-09T11:40:52.614Z,28.65
2024-05-09T11:41:52.583Z,28.67
2024-05-09T11:42:53.267Z,28.68
2024-05-09T11:43:52.593Z,28.68
2024-05-09T11:44:52.564Z,28.70
2024-05-09T11:45:52.646Z,28.71
2024-05-09T11:46:52.584Z,28.70
2024-05-09T11:47:52.729Z,28.71
2024-05-09T11:48:52.788Z,28.73
2024-05-09T11:49:52.631Z,28.77
2024-05-09T11:50:52.593Z,28.74
2024-05-09T11:51:52.670Z,28.77
2024-05-09T11:52:52.605Z,28.78
2024-05-09T11:53:52.625Z,28.77
2024-05-09T11:54:52.689Z,28.77
2024-05-09T11:55:52.588Z,28.77
2024-05-09T11:56:52.620Z,28.78
2024-05-09T11:57:52.606Z,28.78
2024-05-09T11:58:52.619Z,28.79
2024-05-09T11:59:52.594Z,28.81
2024-05-09T12:00:54.651Z,28.82
2024-05-09T12:01:52.700Z,28.84
2024-05-09T12:02:52.690Z,28.85
2024-05-09T12:03:52.802Z,28.87
2024-05-09T12:04:52.628Z,28.91
2024-05-09T12:05:52.671Z,28.88
2024-05-09T12:06:52.670Z,28.90
2024-05-09T12:07:52.596Z,28.92
2024-05-09T12:08:52.611Z,28.94
2024-05-09T12:09:52.695Z,28.91
2024-05-09T12:10:52.866Z,28.91
2024-05-09T12:11:52.685Z,28.94
2024-05-09T12:12:52.723Z,28.92
2024-05-09T12:13:52.662Z,28.94
2024-05-09T12:14:52.661Z,28.94
2024-05-09T12:15:52.743Z,28.94
2024-05-09T12:16:52.685Z,28.97
2024-05-09T12:17:52.727Z,28.97
2024-05-09T12:18:52.860Z,28.95
2024-05-09T12:19:52.699Z,28.98
2024-05-09T12:20:52.729Z,28.99
2024-05-09T12:21:52.834Z,28.99
2024-05-09T12:22:52.866Z,29.01
2024-05-09T12:23:52.981Z,29.03
2024-05-09T12:24:53.075Z,29.05
2024-05-09T12:25:53.081Z,29.05
2024-05-09T12:26:53.152Z,29.05
2024-05-09T12:27:53.241Z,29.06
2024-05-09T12:28:53.296Z,29.10
2024-05-09T12:29:53.368Z,29.10
2024-05-09T12:30:53.410Z,29.10
2024-05-09T12:31:53.519Z,29.10
2024-05-09T12:32:53.646Z,29.09
2024-05-09T12:33:53.650Z,29.12
2024-05-09T12:34:53.614Z,29.13
2024-05-09T12:35:53.688Z,29.12
2024-05-09T12:36:53.805Z,29.15
2024-05-09T12:37:53.909Z,29.16
2024-05-09T12:38:53.883Z,29.17
2024-05-09T12:39:54.036Z,29.19
2024-05-09T12:40:54.314Z,29.20
2024-05-09T12:41:54.047Z,29.20
2024-05-09T12:42:54.200Z,29.22
2024-05-09T12:43:54.189Z,29.22
2024-05-09T12:44:54.220Z,29.20
2024-05-09T12:45:54.258Z,29.23
2024-05-09T12:46:54.231Z,29.25
2024-05-09T12:47:54.305Z,29.23
2024-05-09T12:48:54.495Z,29.25
2024-05-09T12:49:54.262Z,29.25
2024-05-09T12:50:54.346Z,29.27
2024-05-09T12:51:54.259Z,29.26
2024-05-09T12:52:54.221Z,29.27
2024-05-09T12:53:54.280Z,29.32
2024-05-09T12:54:54.399Z,29.30
2024-05-09T12:55:59.867Z,29.30
2024-05-09T12:56:55.382Z,29.33
2024-05-09T12:57:54.404Z,29.36
2024-05-09T12:58:54.406Z,29.30
2024-05-09T12:59:54.392Z,29.30
2024-05-09T13:00:54.522Z,29.27
2024-05-09T13:01:55.923Z,29.30
2024-05-09T13:02:54.441Z,29.27
2024-05-09T13:03:54.539Z,29.29